sensor_id;sensor_type;location;lat;lon;timestamp;temperature;humidity
68251;DHT22;55066;51.560;4.642;2023-04-24T00:02:22;9.81;99.99
68251;DHT22;55066;51.560;4.642;2023-04-24T00:04:48;9.79;99.99
68251;DHT22;55066;51.560;4.642;2023-04-24T00:07:14;9.81;99.99
68251;DHT22;55066;51.560;4.642;2023-04-24T00:09:42;9.75;99.99
68251;DHT22;55066;51.560;4.642;2023-04-24T00:12:09;9.81;99.99
68251;DHT22;55066;51.560;4.642;2023-04-24T00:14:35;9.76;99.99
68251;DHT22;55066;51.560;4.642;2023-04-24T00:17:01;9.68;99.99
68251;DHT22;55066;51.560;4.642;2023-04-24T00:19:28;9.72;99.99
68251;DHT22;55066;51.560;4.642;2023-04-24T00:21:54;9.73;99.99
68251;DHT22;55066;51.560;4.642;2023-04-24T00:24:20;9.66;99.99
68251;DHT22;55066;51.560;4.642;2023-04-24T00:26:45;9.76;99.99
68251;DHT22;55066;51.560;4.642;2023-04-24T00:29:11;9.71;99.99
68251;DHT22;55066;51.560;4.642;2023-04-24T00:31:40;9.78;99.99
68251;DHT22;55066;51.560;4.642;2023-04-24T00:34:13;9.79;99.99
68251;DHT22;55066;51.560;4.642;2023-04-24T00:36:38;9.56;99.99
68251;DHT22;55066;51.560;4.642;2023-04-24T00:39:04;9.54;99.99
68251;DHT22;55066;51.560;4.642;2023-04-24T00:41:30;9.75;99.99
68251;DHT22;55066;51.560;4.642;2023-04-24T00:43:55;9.62;99.99
68251;DHT22;55066;51.560;4.642;2023-04-24T00:46:21;9.66;99.99
68251;DHT22;55066;51.560;4.642;2023-04-24T00:48:47;9.63;99.99
68251;DHT22;55066;51.560;4.642;2023-04-24T00:51:13;9.61;99.99
68251;DHT22;55066;51.560;4.642;2023-04-24T00:53:38;9.62;99.99
68251;DHT22;55066;51.560;4.642;2023-04-24T00:56:04;9.71;99.99
68251;DHT22;55066;51.560;4.642;2023-04-24T00:58:30;9.75;99.99
68251;DHT22;55066;51.560;4.642;2023-04-24T01:00:56;9.75;99.99
68251;DHT22;55066;51.560;4.642;2023-04-24T01:03:25;9.66;99.99
68251;DHT22;55066;51.560;4.642;2023-04-24T01:05:52;9.71;99.99
68251;DHT22;55066;51.560;4.642;2023-04-24T01:08:20;9.82;99.99
68251;DHT22;55066;51.560;4.642;2023-04-24T01:10:47;9.63;99.99
68251;DHT22;55066;51.560;4.642;2023-04-24T01:13:13;9.85;99.99
68251;DHT22;55066;51.560;4.642;2023-04-24T01:15:39;9.79;99.99
68251;DHT22;55066;51.560;4.642;2023-04-24T01:18:06;9.56;99.99
68251;DHT22;55066;51.560;4.642;2023-04-24T01:20:33;9.49;99.99
68251;DHT22;55066;51.560;4.642;2023-04-24T01:22:58;9.54;99.99
68251;DHT22;55066;51.560;4.642;2023-04-24T01:25:25;9.52;99.99
68251;DHT22;55066;51.560;4.642;2023-04-24T01:27:51;9.45;99.99
68251;DHT22;55066;51.560;4.642;2023-04-24T01:30:16;9.41;99.99
68251;DHT22;55066;51.560;4.642;2023-04-24T01:32:42;9.39;99.99
68251;DHT22;55066;51.560;4.642;2023-04-24T01:35:10;9.51;99.99
68251;DHT22;55066;51.560;4.642;2023-04-24T01:37:35;9.44;99.99
68251;DHT22;55066;51.560;4.642;2023-04-24T01:40:04;9.30;99.99
68251;DHT22;55066;51.560;4.642;2023-04-24T01:42:30;9.44;99.99
68251;DHT22;55066;51.560;4.642;2023-04-24T01:44:56;9.37;99.99
68251;DHT22;55066;51.560;4.642;2023-04-24T01:47:23;9.39;99.99
68251;DHT22;55066;51.560;4.642;2023-04-24T01:49:50;9.31;99.99
68251;DHT22;55066;51.560;4.642;2023-04-24T01:52:15;9.37;99.99
68251;DHT22;55066;51.560;4.642;2023-04-24T01:54:41;9.31;99.99
68251;DHT22;55066;51.560;4.642;2023-04-24T01:57:07;9.41;99.99
68251;DHT22;55066;51.560;4.642;2023-04-24T01:59:40;9.26;99.99
68251;DHT22;55066;51.560;4.642;2023-04-24T02:02:06;9.26;99.99
68251;DHT22;55066;51.560;4.642;2023-04-24T02:04:31;9.30;99.99
68251;DHT22;55066;51.560;4.642;2023-04-24T02:06:57;9.38;99.99
68251;DHT22;55066;51.560;4.642;2023-04-24T02:09:23;9.31;99.99
68251;DHT22;55066;51.560;4.642;2023-04-24T02:11:49;9.23;99.99
68251;DHT22;55066;51.560;4.642;2023-04-24T02:14:16;9.21;99.99
68251;DHT22;55066;51.560;4.642;2023-04-24T02:16:42;9.23;99.99
68251;DHT22;55066;51.560;4.642;2023-04-24T02:19:07;9.28;99.99
68251;DHT22;55066;51.560;4.642;2023-04-24T02:21:33;9.20;99.99
68251;DHT22;55066;51.560;4.642;2023-04-24T02:23:58;9.16;99.99
68251;DHT22;55066;51.560;4.642;2023-04-24T02:26:24;9.08;99.99
68251;DHT22;55066;51.560;4.642;2023-04-24T02:28:51;9.07;99.99
68251;DHT22;55066;51.560;4.642;2023-04-24T02:31:18;9.01;99.99
68251;DHT22;55066;51.560;4.642;2023-04-24T02:33:43;8.93;99.99
68251;DHT22;55066;51.560;4.642;2023-04-24T02:36:09;8.87;99.99
68251;DHT22;55066;51.560;4.642;2023-04-24T02:38:34;8.94;99.99
68251;DHT22;55066;51.560;4.642;2023-04-24T02:41:00;8.90;99.99
68251;DHT22;55066;51.560;4.642;2023-04-24T02:43:27;8.96;99.99
68251;DHT22;55066;51.560;4.642;2023-04-24T02:45:52;9.07;99.99
68251;DHT22;55066;51.560;4.642;2023-04-24T02:48:18;8.96;99.99
68251;DHT22;55066;51.560;4.642;2023-04-24T02:50:46;8.91;99.99
68251;DHT22;55066;51.560;4.642;2023-04-24T02:53:11;8.77;99.99
68251;DHT22;55066;51.560;4.642;2023-04-24T02:55:36;8.79;99.99
68251;DHT22;55066;51.560;4.642;2023-04-24T02:58:02;8.81;99.99
68251;DHT22;55066;51.560;4.642;2023-04-24T03:00:27;8.87;99.99
68251;DHT22;55066;51.560;4.642;2023-04-24T03:02:53;8.81;99.99
68251;DHT22;55066;51.560;4.642;2023-04-24T03:05:18;8.76;99.99
68251;DHT22;55066;51.560;4.642;2023-04-24T03:07:44;8.70;99.99
68251;DHT22;55066;51.560;4.642;2023-04-24T03:10:10;8.76;99.99
68251;DHT22;55066;51.560;4.642;2023-04-24T03:12:36;8.76;99.99
68251;DHT22;55066;51.560;4.642;2023-04-24T03:15:01;8.79;99.99
68251;DHT22;55066;51.560;4.642;2023-04-24T03:17:27;8.86;99.99
68251;DHT22;55066;51.560;4.642;2023-04-24T03:19:52;8.79;99.99
68251;DHT22;55066;51.560;4.642;2023-04-24T03:22:18;8.89;99.99
68251;DHT22;55066;51.560;4.642;2023-04-24T03:24:44;8.93;99.99
68251;DHT22;55066;51.560;4.642;2023-04-24T03:27:09;9.03;99.99
68251;DHT22;55066;51.560;4.642;2023-04-24T03:29:49;9.23;99.99
68251;DHT22;55066;51.560;4.642;2023-04-24T03:32:19;9.10;99.99
68251;DHT22;55066;51.560;4.642;2023-04-24T03:34:46;9.23;99.99
68251;DHT22;55066;51.560;4.642;2023-04-24T03:37:13;9.01;99.99
68251;DHT22;55066;51.560;4.642;2023-04-24T03:39:43;9.03;99.99
68251;DHT22;55066;51.560;4.642;2023-04-24T03:42:09;9.11;99.99
68251;DHT22;55066;51.560;4.642;2023-04-24T03:44:45;9.20;99.99
68251;DHT22;55066;51.560;4.642;2023-04-24T03:47:10;9.26;99.99
68251;DHT22;55066;51.560;4.642;2023-04-24T03:49:36;9.17;99.99
68251;DHT22;55066;51.560;4.642;2023-04-24T03:52:03;9.01;99.99
68251;DHT22;55066;51.560;4.642;2023-04-24T03:54:29;9.16;99.65
68251;DHT22;55066;51.560;4.642;2023-04-24T03:56:54;9.10;99.99
68251;DHT22;55066;51.560;4.642;2023-04-24T03:59:20;8.91;99.99
68251;DHT22;55066;51.560;4.642;2023-04-24T04:01:53;9.07;99.99
68251;DHT22;55066;51.560;4.642;2023-04-24T04:04:19;8.93;99.99
68251;DHT22;55066;51.560;4.642;2023-04-24T04:06:45;9.07;99.99
68251;DHT22;55066;51.560;4.642;2023-04-24T04:09:12;9.24;99.99
68251;DHT22;55066;51.560;4.642;2023-04-24T04:11:37;9.06;99.99
68251;DHT22;55066;51.560;4.642;2023-04-24T04:14:04;9.16;99.99
68251;DHT22;55066;51.560;4.642;2023-04-24T04:16:32;9.03;99.99
68251;DHT22;55066;51.560;4.642;2023-04-24T04:19:02;9.26;98.50
68251;DHT22;55066;51.560;4.642;2023-04-24T04:21:28;9.20;99.99
68251;DHT22;55066;51.560;4.642;2023-04-24T04:24:03;9.10;99.99
68251;DHT22;55066;51.560;4.642;2023-04-24T04:26:35;9.03;99.99
68251;DHT22;55066;51.560;4.642;2023-04-24T04:29:03;8.90;99.99
68251;DHT22;55066;51.560;4.642;2023-04-24T04:31:30;8.87;99.99
68251;DHT22;55066;51.560;4.642;2023-04-24T04:33:58;9.16;99.99
68251;DHT22;55066;51.560;4.642;2023-04-24T04:36:24;8.96;99.99
68251;DHT22;55066;51.560;4.642;2023-04-24T04:38:58;9.16;99.99
68251;DHT22;55066;51.560;4.642;2023-04-24T04:41:50;8.84;99.99
68251;DHT22;55066;51.560;4.642;2023-04-24T04:44:18;8.87;99.99
68251;DHT22;55066;51.560;4.642;2023-04-24T04:46:44;8.69;99.99
68251;DHT22;55066;51.560;4.642;2023-04-24T04:49:31;8.79;99.99
68251;DHT22;55066;51.560;4.642;2023-04-24T04:51:57;8.89;99.99
68251;DHT22;55066;51.560;4.642;2023-04-24T04:54:28;8.63;99.99
68251;DHT22;55066;51.560;4.642;2023-04-24T04:56:55;8.73;99.99
68251;DHT22;55066;51.560;4.642;2023-04-24T04:59:23;8.99;99.99
68251;DHT22;55066;51.560;4.642;2023-04-24T05:01:53;8.81;99.99
68251;DHT22;55066;51.560;4.642;2023-04-24T05:04:20;8.94;99.99
68251;DHT22;55066;51.560;4.642;2023-04-24T05:06:46;8.80;99.99
68251;DHT22;55066;51.560;4.642;2023-04-24T05:09:15;8.62;99.99
68251;DHT22;55066;51.560;4.642;2023-04-24T05:12:05;8.87;99.99
68251;DHT22;55066;51.560;4.642;2023-04-24T05:14:35;8.76;99.99
68251;DHT22;55066;51.560;4.642;2023-04-24T05:17:11;8.94;99.99
68251;DHT22;55066;51.560;4.642;2023-04-24T05:19:36;8.81;99.99
68251;DHT22;55066;51.560;4.642;2023-04-24T05:22:04;8.72;99.99
68251;DHT22;55066;51.560;4.642;2023-04-24T05:24:34;8.66;99.99
68251;DHT22;55066;51.560;4.642;2023-04-24T05:27:07;8.79;99.99
68251;DHT22;55066;51.560;4.642;2023-04-24T05:29:37;8.81;99.99
68251;DHT22;55066;51.560;4.642;2023-04-24T05:32:04;8.59;99.99
68251;DHT22;55066;51.560;4.642;2023-04-24T05:34:30;8.73;99.99
68251;DHT22;55066;51.560;4.642;2023-04-24T05:36:56;8.63;99.99
68251;DHT22;55066;51.560;4.642;2023-04-24T05:39:22;8.80;99.99
68251;DHT22;55066;51.560;4.642;2023-04-24T05:41:47;8.66;99.99
68251;DHT22;55066;51.560;4.642;2023-04-24T05:44:13;8.80;99.99
68251;DHT22;55066;51.560;4.642;2023-04-24T05:46:38;8.63;99.99
68251;DHT22;55066;51.560;4.642;2023-04-24T05:49:04;8.75;99.99
68251;DHT22;55066;51.560;4.642;2023-04-24T05:51:32;8.61;99.99
68251;DHT22;55066;51.560;4.642;2023-04-24T05:53:58;8.69;99.74
68251;DHT22;55066;51.560;4.642;2023-04-24T05:56:45;8.76;99.99
68251;DHT22;55066;51.560;4.642;2023-04-24T05:59:43;8.62;99.99
68251;DHT22;55066;51.560;4.642;2023-04-24T06:02:19;8.72;99.99
68251;DHT22;55066;51.560;4.642;2023-04-24T06:04:45;8.76;99.99
68251;DHT22;55066;51.560;4.642;2023-04-24T06:07:11;8.83;99.99
68251;DHT22;55066;51.560;4.642;2023-04-24T06:09:37;8.65;99.99
68251;DHT22;55066;51.560;4.642;2023-04-24T06:12:03;8.69;99.99
68251;DHT22;55066;51.560;4.642;2023-04-24T06:14:43;9.01;99.87
68251;DHT22;55066;51.560;4.642;2023-04-24T06:17:18;8.83;99.99
68251;DHT22;55066;51.560;4.642;2023-04-24T06:19:45;8.61;99.99
68251;DHT22;55066;51.560;4.642;2023-04-24T06:22:11;8.58;99.99
68251;DHT22;55066;51.560;4.642;2023-04-24T06:24:36;8.72;99.99
68251;DHT22;55066;51.560;4.642;2023-04-24T06:27:02;8.69;99.99
68251;DHT22;55066;51.560;4.642;2023-04-24T06:29:27;8.59;99.99
68251;DHT22;55066;51.560;4.642;2023-04-24T06:31:53;8.61;99.99
68251;DHT22;55066;51.560;4.642;2023-04-24T06:34:18;8.81;99.42
68251;DHT22;55066;51.560;4.642;2023-04-24T06:36:46;8.81;99.96
68251;DHT22;55066;51.560;4.642;2023-04-24T06:39:11;8.73;99.99
68251;DHT22;55066;51.560;4.642;2023-04-24T06:41:37;8.61;99.99
68251;DHT22;55066;51.560;4.642;2023-04-24T06:44:03;8.58;99.99
68251;DHT22;55066;51.560;4.642;2023-04-24T06:46:28;8.70;99.99
68251;DHT22;55066;51.560;4.642;2023-04-24T06:48:54;8.72;99.99
68251;DHT22;55066;51.560;4.642;2023-04-24T06:51:24;8.63;99.95
68251;DHT22;55066;51.560;4.642;2023-04-24T06:53:54;8.58;99.99
68251;DHT22;55066;51.560;4.642;2023-04-24T06:56:21;8.76;99.99
68251;DHT22;55066;51.560;4.642;2023-04-24T06:58:47;8.75;99.99
68251;DHT22;55066;51.560;4.642;2023-04-24T07:01:12;8.68;99.99
68251;DHT22;55066;51.560;4.642;2023-04-24T07:03:38;8.61;99.99
68251;DHT22;55066;51.560;4.642;2023-04-24T07:06:04;8.69;99.99
68251;DHT22;55066;51.560;4.642;2023-04-24T07:08:30;8.69;99.99
68251;DHT22;55066;51.560;4.642;2023-04-24T07:10:59;8.69;99.99
68251;DHT22;55066;51.560;4.642;2023-04-24T07:13:25;8.52;99.99
68251;DHT22;55066;51.560;4.642;2023-04-24T07:15:50;8.84;99.88
68251;DHT22;55066;51.560;4.642;2023-04-24T07:18:18;8.86;99.94
68251;DHT22;55066;51.560;4.642;2023-04-24T07:20:43;8.77;99.99
68251;DHT22;55066;51.560;4.642;2023-04-24T07:23:10;8.83;99.95
68251;DHT22;55066;51.560;4.642;2023-04-24T07:25:35;8.73;99.99
68251;DHT22;55066;51.560;4.642;2023-04-24T07:28:01;8.79;99.27
68251;DHT22;55066;51.560;4.642;2023-04-24T07:30:26;8.52;99.99
68251;DHT22;55066;51.560;4.642;2023-04-24T07:32:54;8.81;99.20
68251;DHT22;55066;51.560;4.642;2023-04-24T07:35:21;8.68;99.99
68251;DHT22;55066;51.560;4.642;2023-04-24T07:37:46;8.70;98.90
68251;DHT22;55066;51.560;4.642;2023-04-24T07:40:13;8.79;98.63
68251;DHT22;55066;51.560;4.642;2023-04-24T07:42:38;8.70;99.99
68251;DHT22;55066;51.560;4.642;2023-04-24T07:45:04;8.76;99.99
68251;DHT22;55066;51.560;4.642;2023-04-24T07:47:31;8.79;99.60
68251;DHT22;55066;51.560;4.642;2023-04-24T07:49:57;8.87;99.99
68251;DHT22;55066;51.560;4.642;2023-04-24T07:52:23;8.87;99.99
68251;DHT22;55066;51.560;4.642;2023-04-24T07:54:49;9.14;98.34
68251;DHT22;55066;51.560;4.642;2023-04-24T07:57:15;9.16;99.99
68251;DHT22;55066;51.560;4.642;2023-04-24T07:59:41;9.07;99.99
68251;DHT22;55066;51.560;4.642;2023-04-24T08:02:07;8.94;99.25
68251;DHT22;55066;51.560;4.642;2023-04-24T08:04:32;8.94;99.68
68251;DHT22;55066;51.560;4.642;2023-04-24T08:06:58;8.96;99.99
68251;DHT22;55066;51.560;4.642;2023-04-24T08:09:23;8.86;99.99
68251;DHT22;55066;51.560;4.642;2023-04-24T08:11:49;9.08;99.99
68251;DHT22;55066;51.560;4.642;2023-04-24T08:14:15;9.37;95.96
68251;DHT22;55066;51.560;4.642;2023-04-24T08:16:41;9.28;99.61
68251;DHT22;55066;51.560;4.642;2023-04-24T08:19:09;9.39;97.02
68251;DHT22;55066;51.560;4.642;2023-04-24T08:21:35;9.20;99.99
68251;DHT22;55066;51.560;4.642;2023-04-24T08:24:00;9.35;99.21
68251;DHT22;55066;51.560;4.642;2023-04-24T08:26:30;9.58;96.72
68251;DHT22;55066;51.560;4.642;2023-04-24T08:28:55;9.52;99.98
68251;DHT22;55066;51.560;4.642;2023-04-24T08:31:21;9.48;98.56
68251;DHT22;55066;51.560;4.642;2023-04-24T08:33:47;9.45;96.90
68251;DHT22;55066;51.560;4.642;2023-04-24T08:36:13;9.35;99.16
68251;DHT22;55066;51.560;4.642;2023-04-24T08:38:38;9.42;97.14
68251;DHT22;55066;51.560;4.642;2023-04-24T08:41:05;9.31;98.08
68251;DHT22;55066;51.560;4.642;2023-04-24T08:43:33;9.34;97.55
68251;DHT22;55066;51.560;4.642;2023-04-24T08:45:59;9.14;99.08
68251;DHT22;55066;51.560;4.642;2023-04-24T08:48:25;9.31;96.76
68251;DHT22;55066;51.560;4.642;2023-04-24T08:50:51;9.11;97.72
68251;DHT22;55066;51.560;4.642;2023-04-24T08:53:18;9.26;97.80
68251;DHT22;55066;51.560;4.642;2023-04-24T08:55:49;9.46;97.78
68251;DHT22;55066;51.560;4.642;2023-04-24T08:58:16;9.49;96.76
68251;DHT22;55066;51.560;4.642;2023-04-24T09:00:42;9.81;95.26
68251;DHT22;55066;51.560;4.642;2023-04-24T09:03:15;9.56;96.38
68251;DHT22;55066;51.560;4.642;2023-04-24T09:05:44;9.63;96.47
68251;DHT22;55066;51.560;4.642;2023-04-24T09:08:16;9.72;97.45
68251;DHT22;55066;51.560;4.642;2023-04-24T09:10:46;9.92;94.85
68251;DHT22;55066;51.560;4.642;2023-04-24T09:13:12;9.85;95.42
68251;DHT22;55066;51.560;4.642;2023-04-24T09:15:39;9.65;96.30
68251;DHT22;55066;51.560;4.642;2023-04-24T09:18:05;9.75;96.68
68251;DHT22;55066;51.560;4.642;2023-04-24T09:20:34;9.99;95.52
68251;DHT22;55066;51.560;4.642;2023-04-24T09:23:01;9.90;95.78
68251;DHT22;55066;51.560;4.642;2023-04-24T09:25:34;10.03;93.65
68251;DHT22;55066;51.560;4.642;2023-04-24T09:28:03;10.02;94.23
68251;DHT22;55066;51.560;4.642;2023-04-24T09:30:29;9.71;95.70
68251;DHT22;55066;51.560;4.642;2023-04-24T09:33:13;9.55;94.92
68251;DHT22;55066;51.560;4.642;2023-04-24T09:35:49;9.49;94.96
68251;DHT22;55066;51.560;4.642;2023-04-24T09:38:15;9.49;96.04
68251;DHT22;55066;51.560;4.642;2023-04-24T09:40:40;9.54;94.59
68251;DHT22;55066;51.560;4.642;2023-04-24T09:43:10;9.59;95.16
68251;DHT22;55066;51.560;4.642;2023-04-24T09:45:38;9.73;94.54
68251;DHT22;55066;51.560;4.642;2023-04-24T09:48:03;9.75;94.67
68251;DHT22;55066;51.560;4.642;2023-04-24T09:50:32;9.89;93.56
68251;DHT22;55066;51.560;4.642;2023-04-24T09:53:02;9.76;94.26
68251;DHT22;55066;51.560;4.642;2023-04-24T09:55:28;9.71;94.10
68251;DHT22;55066;51.560;4.642;2023-04-24T09:57:56;9.81;94.28
68251;DHT22;55066;51.560;4.642;2023-04-24T10:00:26;9.85;93.86
68251;DHT22;55066;51.560;4.642;2023-04-24T10:05:27;9.89;94.17
68251;DHT22;55066;51.560;4.642;2023-04-24T10:08:00;10.13;93.87
68251;DHT22;55066;51.560;4.642;2023-04-24T10:10:28;10.14;93.52
68251;DHT22;55066;51.560;4.642;2023-04-24T10:12:54;10.44;91.98
68251;DHT22;55066;51.560;4.642;2023-04-24T10:15:20;10.59;93.03
68251;DHT22;55066;51.560;4.642;2023-04-24T10:17:50;10.82;90.86
68251;DHT22;55066;51.560;4.642;2023-04-24T10:20:27;11.07;90.16
68251;DHT22;55066;51.560;4.642;2023-04-24T10:22:55;11.16;90.56
68251;DHT22;55066;51.560;4.642;2023-04-24T10:25:29;11.23;90.33
68251;DHT22;55066;51.560;4.642;2023-04-24T10:27:56;10.97;89.52
68251;DHT22;55066;51.560;4.642;2023-04-24T10:30:33;11.26;89.71
68251;DHT22;55066;51.560;4.642;2023-04-24T10:33:02;11.20;88.77
68251;DHT22;55066;51.560;4.642;2023-04-24T10:35:35;11.71;88.21
68251;DHT22;55066;51.560;4.642;2023-04-24T10:38:16;11.44;88.14
68251;DHT22;55066;51.560;4.642;2023-04-24T10:40:43;11.42;88.84
68251;DHT22;55066;51.560;4.642;2023-04-24T10:43:09;11.40;89.26
68251;DHT22;55066;51.560;4.642;2023-04-24T10:45:37;11.41;89.74
68251;DHT22;55066;51.560;4.642;2023-04-24T10:48:09;11.17;89.39
68251;DHT22;55066;51.560;4.642;2023-04-24T10:50:52;11.09;89.79
68251;DHT22;55066;51.560;4.642;2023-04-24T10:53:22;11.58;88.95
68251;DHT22;55066;51.560;4.642;2023-04-24T10:55:58;11.69;88.47
68251;DHT22;55066;51.560;4.642;2023-04-24T10:58:24;11.48;89.40
68251;DHT22;55066;51.560;4.642;2023-04-24T11:00:58;11.62;88.98
68251;DHT22;55066;51.560;4.642;2023-04-24T11:05:53;11.65;88.96
68251;DHT22;55066;51.560;4.642;2023-04-24T11:11:14;11.85;88.64
68251;DHT22;55066;51.560;4.642;2023-04-24T11:27:03;12.03;88.06
68251;DHT22;55066;51.560;4.642;2023-04-24T11:29:49;11.89;86.75
68251;DHT22;55066;51.560;4.642;2023-04-24T11:32:25;12.02;86.70
68251;DHT22;55066;51.560;4.642;2023-04-24T11:34:54;12.65;86.00
68251;DHT22;55066;51.560;4.642;2023-04-24T11:37:23;12.54;86.17
68251;DHT22;55066;51.560;4.642;2023-04-24T11:39:51;12.43;86.73
68251;DHT22;55066;51.560;4.642;2023-04-24T11:42:17;12.15;86.36
68251;DHT22;55066;51.560;4.642;2023-04-24T11:44:43;11.88;87.62
68251;DHT22;55066;51.560;4.642;2023-04-24T11:47:08;11.78;89.08
68251;DHT22;55066;51.560;4.642;2023-04-24T11:49:36;11.54;86.83
68251;DHT22;55066;51.560;4.642;2023-04-24T11:52:02;11.77;90.17
68251;DHT22;55066;51.560;4.642;2023-04-24T11:54:28;11.48;88.92
68251;DHT22;55066;51.560;4.642;2023-04-24T11:56:54;11.51;90.63
68251;DHT22;55066;51.560;4.642;2023-04-24T11:59:19;11.89;88.55
68251;DHT22;55066;51.560;4.642;2023-04-24T12:01:45;11.86;87.90
68251;DHT22;55066;51.560;4.642;2023-04-24T12:04:12;12.60;85.98
68251;DHT22;55066;51.560;4.642;2023-04-24T12:06:37;12.58;86.10
68251;DHT22;55066;51.560;4.642;2023-04-24T12:09:03;12.36;85.74
68251;DHT22;55066;51.560;4.642;2023-04-24T12:11:29;11.86;86.83
68251;DHT22;55066;51.560;4.642;2023-04-24T12:13:54;11.81;89.78
68251;DHT22;55066;51.560;4.642;2023-04-24T12:16:20;11.58;89.21
68251;DHT22;55066;51.560;4.642;2023-04-24T12:18:45;10.76;92.48
68251;DHT22;55066;51.560;4.642;2023-04-24T12:21:15;11.06;93.58
68251;DHT22;55066;51.560;4.642;2023-04-24T12:23:43;11.02;93.29
68251;DHT22;55066;51.560;4.642;2023-04-24T12:26:09;10.88;93.48
68251;DHT22;55066;51.560;4.642;2023-04-24T12:28:36;11.28;92.25
68251;DHT22;55066;51.560;4.642;2023-04-24T12:31:02;11.83;90.98
68251;DHT22;55066;51.560;4.642;2023-04-24T12:33:35;11.64;90.47
68251;DHT22;55066;51.560;4.642;2023-04-24T12:36:00;11.69;90.53
68251;DHT22;55066;51.560;4.642;2023-04-24T12:38:27;12.30;90.15
68251;DHT22;55066;51.560;4.642;2023-04-24T12:41:06;13.42;87.05
68251;DHT22;55066;51.560;4.642;2023-04-24T12:43:31;12.89;87.42
68251;DHT22;55066;51.560;4.642;2023-04-24T12:45:57;12.58;86.97
68251;DHT22;55066;51.560;4.642;2023-04-24T12:48:25;12.43;88.51
68251;DHT22;55066;51.560;4.642;2023-04-24T12:50:50;12.44;89.69
68251;DHT22;55066;51.560;4.642;2023-04-24T12:53:16;12.37;88.30
68251;DHT22;55066;51.560;4.642;2023-04-24T12:55:41;12.34;88.17
68251;DHT22;55066;51.560;4.642;2023-04-24T12:58:07;12.50;87.61
68251;DHT22;55066;51.560;4.642;2023-04-24T13:00:32;12.54;87.16
68251;DHT22;55066;51.560;4.642;2023-04-24T13:02:58;12.85;88.14
68251;DHT22;55066;51.560;4.642;2023-04-24T13:05:23;12.55;88.24
68251;DHT22;55066;51.560;4.642;2023-04-24T13:07:49;11.96;89.68
68251;DHT22;55066;51.560;4.642;2023-04-24T13:10:14;11.52;89.49
68251;DHT22;55066;51.560;4.642;2023-04-24T13:12:40;11.24;91.56
68251;DHT22;55066;51.560;4.642;2023-04-24T13:15:06;10.76;90.26
68251;DHT22;55066;51.560;4.642;2023-04-24T13:17:32;10.97;91.73
68251;DHT22;55066;51.560;4.642;2023-04-24T13:19:58;11.23;91.88
68251;DHT22;55066;51.560;4.642;2023-04-24T13:22:23;11.37;91.54
68251;DHT22;55066;51.560;4.642;2023-04-24T13:24:50;11.07;92.31
68251;DHT22;55066;51.560;4.642;2023-04-24T13:27:16;10.69;91.71
68251;DHT22;55066;51.560;4.642;2023-04-24T13:29:42;11.48;90.83
68251;DHT22;55066;51.560;4.642;2023-04-24T13:32:08;11.83;89.64
68251;DHT22;55066;51.560;4.642;2023-04-24T13:34:33;12.05;88.98
68251;DHT22;55066;51.560;4.642;2023-04-24T13:37:02;11.60;89.16
68251;DHT22;55066;51.560;4.642;2023-04-24T13:39:29;12.20;87.43
68251;DHT22;55066;51.560;4.642;2023-04-24T13:41:54;12.27;87.35
68251;DHT22;55066;51.560;4.642;2023-04-24T13:44:21;12.00;87.17
68251;DHT22;55066;51.560;4.642;2023-04-24T13:46:49;12.43;86.70
68251;DHT22;55066;51.560;4.642;2023-04-24T13:49:16;12.87;86.45
68251;DHT22;55066;51.560;4.642;2023-04-24T13:51:42;12.22;86.00
68251;DHT22;55066;51.560;4.642;2023-04-24T13:54:08;12.47;87.06
68251;DHT22;55066;51.560;4.642;2023-04-24T13:56:33;12.34;84.48
68251;DHT22;55066;51.560;4.642;2023-04-24T13:58:59;12.50;86.38
68251;DHT22;55066;51.560;4.642;2023-04-24T14:01:24;13.09;85.29
68251;DHT22;55066;51.560;4.642;2023-04-24T14:03:51;12.85;85.11
68251;DHT22;55066;51.560;4.642;2023-04-24T14:06:17;13.36;83.82
68251;DHT22;55066;51.560;4.642;2023-04-24T14:08:43;13.02;85.57
68251;DHT22;55066;51.560;4.642;2023-04-24T14:11:08;13.08;85.13
68251;DHT22;55066;51.560;4.642;2023-04-24T14:13:35;13.57;83.70
68251;DHT22;55066;51.560;4.642;2023-04-24T14:16:00;13.58;83.99
68251;DHT22;55066;51.560;4.642;2023-04-24T14:18:26;12.96;85.65
68251;DHT22;55066;51.560;4.642;2023-04-24T14:20:52;12.84;85.40
68251;DHT22;55066;51.560;4.642;2023-04-24T14:23:18;12.12;84.21
68251;DHT22;55066;51.560;4.642;2023-04-24T14:25:43;12.60;83.13
68251;DHT22;55066;51.560;4.642;2023-04-24T14:28:09;12.57;83.40
68251;DHT22;55066;51.560;4.642;2023-04-24T14:30:34;13.03;82.77
68251;DHT22;55066;51.560;4.642;2023-04-24T14:33:06;13.86;83.64
68251;DHT22;55066;51.560;4.642;2023-04-24T14:35:31;14.13;80.97
68251;DHT22;55066;51.560;4.642;2023-04-24T14:37:58;13.97;80.06
68251;DHT22;55066;51.560;4.642;2023-04-24T14:40:24;14.36;79.68
68251;DHT22;55066;51.560;4.642;2023-04-24T14:42:49;14.29;79.41
68251;DHT22;55066;51.560;4.642;2023-04-24T14:45:15;13.75;82.81
68251;DHT22;55066;51.560;4.642;2023-04-24T14:47:41;13.40;81.85
68251;DHT22;55066;51.560;4.642;2023-04-24T14:50:07;12.92;84.72
68251;DHT22;55066;51.560;4.642;2023-04-24T14:52:33;12.71;86.57
68251;DHT22;55066;51.560;4.642;2023-04-24T14:54:58;12.43;87.87
68251;DHT22;55066;51.560;4.642;2023-04-24T14:57:24;12.26;88.37
68251;DHT22;55066;51.560;4.642;2023-04-24T14:59:50;12.29;88.76
68251;DHT22;55066;51.560;4.642;2023-04-24T15:02:16;12.71;88.78
68251;DHT22;55066;51.560;4.642;2023-04-24T15:04:41;12.68;88.60
68251;DHT22;55066;51.560;4.642;2023-04-24T15:07:06;12.58;86.95
68251;DHT22;55066;51.560;4.642;2023-04-24T15:09:32;12.87;84.59
68251;DHT22;55066;51.560;4.642;2023-04-24T15:11:58;13.03;85.90
68251;DHT22;55066;51.560;4.642;2023-04-24T15:14:23;13.75;82.54
68251;DHT22;55066;51.560;4.642;2023-04-24T15:16:49;13.82;80.01
68251;DHT22;55066;51.560;4.642;2023-04-24T15:19:14;14.00;84.72
68251;DHT22;55066;51.560;4.642;2023-04-24T15:21:39;13.68;81.75
68251;DHT22;55066;51.560;4.642;2023-04-24T15:24:06;14.16;81.72
68251;DHT22;55066;51.560;4.642;2023-04-24T15:26:32;14.12;83.43
68251;DHT22;55066;51.560;4.642;2023-04-24T15:28:59;13.95;83.85
68251;DHT22;55066;51.560;4.642;2023-04-24T15:31:24;13.47;85.23
68251;DHT22;55066;51.560;4.642;2023-04-24T15:33:50;13.06;87.07
68251;DHT22;55066;51.560;4.642;2023-04-24T15:36:17;13.23;82.48
68251;DHT22;55066;51.560;4.642;2023-04-24T15:38:43;12.91;81.18
68251;DHT22;55066;51.560;4.642;2023-04-24T15:41:09;13.86;83.68
68251;DHT22;55066;51.560;4.642;2023-04-24T15:43:34;14.98;81.95
68251;DHT22;55066;51.560;4.642;2023-04-24T15:46:01;14.12;82.14
68251;DHT22;55066;51.560;4.642;2023-04-24T15:48:30;13.36;85.24
68251;DHT22;55066;51.560;4.642;2023-04-24T15:50:55;13.54;85.49
68251;DHT22;55066;51.560;4.642;2023-04-24T15:53:21;13.46;82.70
68251;DHT22;55066;51.560;4.642;2023-04-24T15:55:48;13.23;86.22
68251;DHT22;55066;51.560;4.642;2023-04-24T15:58:14;14.59;82.82
68251;DHT22;55066;51.560;4.642;2023-04-24T16:00:39;14.33;81.86
68251;DHT22;55066;51.560;4.642;2023-04-24T16:03:05;13.70;82.02